Tuskahoma, Oklahoma
Current Conditions -  °F | °C
As of 9:53 PM on Sunday 23 Nov 2014 (Local Time) from KMLC Reporting Station
Overcast Overcast  
Wind Chill: 41°   Ceiling: 2400
Heat Index: 48°   Visibility: 10mi
Dew Point: 40°   Wind: 18mph
Humidity: 74%   Direction: 330°NNW
Pressure: 29.66"   Gusts: 29mph
Location:  34.62°N, 95.28°W
Report Text: KMLC 240353Z AUTO 33016G25KT 10SM BKN024 OVC030 09/04 A2966 RMK AO2 PK WND 33031/0327 RAE52 SLP038 P0000 T00890044
Loading
Personal Weather Stations






























Interactive Weather Map New forecast layout! Learn more

10-Day Weather Forecast

Advertisements
Track Severe Weather on mobile